Time;durP1;ratioP1;P1;durP2;ratioP2;P2;SDS_P1;SDS_P2;PMS_P1;PMS_P2;Temp;Humidity;BMP_temperature;BMP_pressure;BME280_temperature;BME280_humidity;BME280_pressure;Samples;Min_cycle;Max_cycle;Signal;HPM_P1;HPM_P2
2022/10/03 00:00:39;;;;;;;8.65;6.72;;;;;;;;;;5048644;28;20037;-68
2022/10/03 00:03:19;;;;;;;7.80;5.70;;;;;;;;;;5052004;28;20131;-67
2022/10/03 00:06:01;;;;;;;10.90;6.88;;;;;;;;;;5068571;28;20056;-68
2022/10/03 00:08:27;;;;;;;;;;;;;;;;;;5070947;28;20123;-68
2022/10/03 00:11:02;;;;;;;12.32;8.10;;;;;;;;;;5070831;28;20019;-68
2022/10/03 00:13:47;;;;;;;10.00;7.78;;;;;;;;;;5054480;28;20045;-67
2022/10/03 00:16:32;;;;;;;10.50;7.22;;;;;;;;;;5068091;28;20041;-68
2022/10/03 00:19:02;;;;;;;10.13;7.45;;;;;;;;;;5046573;28;20098;-68
2022/10/03 00:21:37;;;;;;;10.65;8.45;;;;;;;;;;5050695;28;20106;-68
2022/10/03 00:24:03;;;;;;;11.57;9.30;;;;;;;;;;5048369;28;20462;-68
2022/10/03 00:26:33;;;;;;;10.30;7.25;;;;;;;;;;5062810;28;20098;-67
2022/10/03 00:28:59;;;;;;;9.82;7.40;;;;;;;;;;5053136;28;20649;-67
2022/10/03 00:31:37;;;;;;;11.00;8.00;;;;;;;;;;5064445;28;20124;-68
2022/10/03 00:34:24;;;;;;;13.50;7.85;;;;;;;;;;5051909;28;20048;-68
2022/10/03 00:37:09;;;;;;;12.40;8.40;;;;;;;;;;5068619;28;20045;-66
2022/10/03 00:39:41;;;;;;;11.60;7.15;;;;;;;;;;5063887;28;20083;-67
2022/10/03 00:42:22;;;;;;;12.23;8.68;;;;;;;;;;5047042;28;20557;-68
2022/10/03 00:45:01;;;;;;;14.77;8.68;;;;;;;;;;5071598;28;20557;-68
2022/10/03 00:48:02;;;;;;;11.73;7.82;;;;;;;;;;5055654;28;20979;-68
2022/10/03 00:50:47;;;;;;;13.15;8.57;;;;;;;;;;5033201;28;20165;-68
2022/10/03 00:53:13;;;;;;;13.02;9.23;;;;;;;;;;5082819;27;20550;-69
2022/10/03 00:55:39;;;;;;;11.65;8.50;;;;;;;;;;5062016;28;20041;-68
2022/10/03 00:58:14;;;;;;;15.40;8.60;;;;;;;;;;5072327;28;20120;-68
2022/10/03 01:00:44;;;;;;;10.35;6.57;;;;;;;;;;5056440;28;20073;-68
2022/10/03 01:03:19;;;;;;;10.07;6.47;;;;;;;;;;5072179;28;20125;-68
2022/10/03 01:05:52;;;;;;;10.57;6.35;;;;;;;;;;5056386;28;20504;-68
2022/10/03 01:08:21;;;;;;;8.68;4.80;;;;;;;;;;5064697;28;20581;-68
2022/10/03 01:10:56;;;;;;;8.13;5.43;;;;;;;;;;5072177;28;20823;-68
2022/10/03 01:13:22;;;;;;;11.57;5.38;;;;;;;;;;5072250;28;20037;-68
2022/10/03 01:15:57;;;;;;;9.05;4.90;;;;;;;;;;5072344;28;20053;-68
2022/10/03 01:18:26;;;;;;;6.78;4.88;;;;;;;;;;5063967;28;20669;-68
2022/10/03 01:21:02;;;;;;;8.45;4.88;;;;;;;;;;5073830;28;20064;-69
2022/10/03 01:23:34;;;;;;;6.70;4.47;;;;;;;;;;5071719;28;20044;-67
2022/10/03 01:26:19;;;;;;;6.78;4.55;;;;;;;;;;5056066;28;20041;-68
2022/10/03 01:31:49;;;;;;;8.52;4.53;;;;;;;;;;5058268;28;20073;-67
2022/10/03 01:34:30;;;;;;;6.53;4.57;;;;;;;;;;5057492;28;20080;-67
2022/10/03 01:37:02;;;;;;;10.70;4.43;;;;;;;;;;5072013;28;20166;-67
2022/10/03 01:39:32;;;;;;;7.03;3.65;;;;;;;;;;5058963;28;20484;-67
2022/10/03 01:42:00;;;;;;;5.22;3.90;;;;;;;;;;5057215;28;20045;-67
2022/10/03 01:44:50;;;;;;;5.32;4.15;;;;;;;;;;5073282;28;20088;-67
2022/10/03 01:47:28;;;;;;;7.25;2.80;;;;;;;;;;5071477;28;20037;-67
2022/10/03 01:50:13;;;;;;;4.28;2.88;;;;;;;;;;5073667;28;20067;-67
2022/10/03 01:52:43;;;;;;;5.50;2.55;;;;;;;;;;5051717;28;20049;-66
2022/10/03 01:55:22;;;;;;;4.05;2.88;;;;;;;;;;5059866;28;20045;-67
2022/10/03 01:58:00;;;;;;;3.75;2.50;;;;;;;;;;5057528;28;20606;-67
2022/10/03 02:00:30;;;;;;;5.47;2.78;;;;;;;;;;5056658;28;20144;-67
2022/10/03 02:03:10;;;;;;;4.85;2.28;;;;;;;;;;5071019;28;20045;-67
2022/10/03 02:05:46;;;;;;;5.22;3.30;;;;;;;;;;5057620;28;20045;-67
2022/10/03 02:08:16;;;;;;;6.25;2.00;;;;;;;;;;5054641;28;20037;-67
2022/10/03 02:10:42;;;;;;;4.07;2.50;;;;;;;;;;5054850;28;20068;-67
2022/10/03 02:13:08;;;;;;;3.90;2.20;;;;;;;;;;5054532;28;20328;-67
2022/10/03 02:15:55;;;;;;;3.13;1.70;;;;;;;;;;5051450;28;20041;-67
2022/10/03 02:18:21;;;;;;;4.05;2.65;;;;;;;;;;5051991;28;20055;-67
2022/10/03 02:20:50;;;;;;;6.30;2.38;;;;;;;;;;5069387;28;20052;-67
2022/10/03 02:23:22;;;;;;;3.65;2.00;;;;;;;;;;5069210;28;20056;-67
2022/10/03 02:26:02;;;;;;;4.85;2.00;;;;;;;;;;5051761;28;20048;-67
2022/10/03 02:28:35;;;;;;;3.35;1.90;;;;;;;;;;5068967;28;20092;-67
2022/10/03 02:31:19;;;;;;;4.63;2.50;;;;;;;;;;5067805;28;20865;-67
2022/10/03 02:33:48;;;;;;;3.80;1.80;;;;;;;;;;5055794;28;20069;-67
2022/10/03 02:36:33;;;;;;;3.55;1.77;;;;;;;;;;5055481;28;20041;-66
2022/10/03 02:39:18;;;;;;;3.17;1.95;;;;;;;;;;5055066;28;20037;-67
2022/10/03 02:41:53;;;;;;;4.25;2.53;;;;;;;;;;5054401;28;20405;-67
2022/10/03 02:44:29;;;;;;;4.43;1.70;;;;;;;;;;5054801;28;20048;-67
2022/10/03 02:47:24;;;;;;;4.90;2.72;;;;;;;;;;5061328;28;20056;-66
2022/10/03 02:50:09;;;;;;;3.28;2.03;;;;;;;;;;5018970;28;20049;-67
2022/10/03 02:52:54;;;;;;;3.60;2.00;;;;;;;;;;5051812;28;20045;-66
2022/10/03 02:55:27;;;;;;;4.18;1.80;;;;;;;;;;5066343;28;20037;-67
2022/10/03 02:58:11;;;;;;;3.72;1.80;;;;;;;;;;5051894;28;20037;-67
2022/10/03 03:00:40;;;;;;;4.30;1.85;;;;;;;;;;5045846;28;20064;-67
2022/10/03 03:03:24;;;;;;;6.13;2.00;;;;;;;;;;5067903;28;20053;-67
2022/10/03 03:06:03;;;;;;;5.53;2.33;;;;;;;;;;5049392;28;20527;-67
2022/10/03 03:08:48;;;;;;;3.13;2.05;;;;;;;;;;5050102;28;20045;-67
2022/10/03 03:11:33;;;;;;;4.07;2.05;;;;;;;;;;5050712;28;20546;-67
2022/10/03 03:14:22;;;;;;;3.78;2.08;;;;;;;;;;5049491;28;20044;-67
2022/10/03 03:16:51;;;;;;;3.95;2.00;;;;;;;;;;5065444;28;20906;-67
2022/10/03 03:19:20;;;;;;;4.20;2.25;;;;;;;;;;5055551;28;20044;-67
2022/10/03 03:21:46;;;;;;;4.60;2.10;;;;;;;;;;5056577;28;20040;-68
2022/10/03 03:24:22;;;;;;;3.60;2.30;;;;;;;;;;5048246;28;20345;-68
2022/10/03 03:27:07;;;;;;;3.55;2.30;;;;;;;;;;5054618;28;20353;-67
2022/10/03 03:29:52;;;;;;;3.25;2.08;;;;;;;;;;5062341;28;20037;-67
2022/10/03 03:32:37;;;;;;;4.00;2.40;;;;;;;;;;5055282;28;20099;-67
2022/10/03 03:35:06;;;;;;;4.70;2.10;;;;;;;;;;5055572;28;20043;-67
2022/10/03 03:37:38;;;;;;;2.97;2.00;;;;;;;;;;5053046;28;20049;-67
2022/10/03 03:40:28;;;;;;;3.58;2.45;;;;;;;;;;5072913;28;20045;-67
2022/10/03 03:43:14;;;;;;;4.15;1.95;;;;;;;;;;5071114;28;21158;-67
2022/10/03 03:45:54;;;;;;;3.95;2.42;;;;;;;;;;5071124;28;20172;-67
2022/10/03 03:48:21;;;;;;;4.20;2.10;;;;;;;;;;5061959;28;20033;-67
2022/10/03 03:51:02;;;;;;;6.22;2.30;;;;;;;;;;5070694;28;20049;-67
2022/10/03 03:53:46;;;;;;;5.15;1.92;;;;;;;;;;5070573;28;20037;-67
2022/10/03 03:56:19;;;;;;;3.50;2.10;;;;;;;;;;5055937;28;20045;-67
2022/10/03 03:58:45;;;;;;;4.32;1.90;;;;;;;;;;5054195;28;20045;-67
2022/10/03 04:01:20;;;;;;;3.17;1.60;;;;;;;;;;5069536;28;20232;-68
2022/10/03 04:03:46;;;;;;;5.45;2.22;;;;;;;;;;5053335;28;20124;-68
2022/10/03 04:06:34;;;;;;;3.40;2.05;;;;;;;;;;5072614;28;20087;-67
2022/10/03 04:09:28;;;;;;;2.97;1.70;;;;;;;;;;5055836;28;20039;-68
2022/10/03 04:11:55;;;;;;;4.50;1.80;;;;;;;;;;5061040;28;20045;-67
2022/10/03 04:14:39;;;;;;;4.35;2.53;;;;;;;;;;5069854;28;20042;-67
2022/10/03 04:19:50;;;;;;;4.95;1.65;;;;;;;;;;5054517;28;20049;-68
2022/10/03 04:22:35;;;;;;;3.03;1.60;;;;;;;;;;5048855;28;20045;-68
2022/10/03 04:25:04;;;;;;;3.78;1.95;;;;;;;;;;5052983;28;20051;-67
2022/10/03 04:27:45;;;;;;;3.63;2.10;;;;;;;;;;5070356;28;20099;-68
2022/10/03 04:30:30;;;;;;;2.55;1.40;;;;;;;;;;5069187;28;20079;-70
2022/10/03 04:33:32;;;;;;;3.08;2.08;;;;;;;;;;5048390;28;20041;-67
2022/10/03 04:36:14;;;;;;;2.92;1.48;;;;;;;;;;5031805;28;20143;-67
2022/10/03 04:38:49;;;;;;;2.13;1.58;;;;;;;;;;5053990;28;20091;-67
2022/10/03 04:41:27;;;;;;;4.15;1.88;;;;;;;;;;5070670;28;20041;-67
2022/10/03 04:44:02;;;;;;;3.25;1.63;;;;;;;;;;5070470;28;20191;-67
2022/10/03 04:46:34;;;;;;;3.92;2.20;;;;;;;;;;5072337;28;20033;-67
2022/10/03 04:49:00;;;;;;;;;;;;;;;;;;5055527;28;20085;-67
2022/10/03 04:51:42;;;;;;;2.90;1.65;;;;;;;;;;5047751;28;19921;-67
2022/10/03 04:54:20;;;;;;;3.33;1.60;;;;;;;;;;5054032;28;20059;-67
2022/10/03 04:56:58;;;;;;;3.20;1.52;;;;;;;;;;5055453;28;20040;-67
2022/10/03 04:59:28;;;;;;;3.22;1.60;;;;;;;;;;5054545;28;20531;-66
2022/10/03 05:02:04;;;;;;;3.63;1.50;;;;;;;;;;5070896;28;21891;-67
2022/10/03 05:04:39;;;;;;;5.43;1.55;;;;;;;;;;5047220;28;20041;-68
2022/10/03 05:07:13;;;;;;;2.63;1.45;;;;;;;;;;5053769;28;20041;-71
2022/10/03 05:09:46;;;;;;;3.17;1.65;;;;;;;;;;5067359;28;20052;-66
2022/10/03 05:12:12;;;;;;;5.35;1.85;;;;;;;;;;5065500;28;20120;-67
2022/10/03 05:14:48;;;;;;;2.22;1.40;;;;;;;;;;5068245;28;20551;-66
2022/10/03 05:17:22;;;;;;;2.72;1.33;;;;;;;;;;5070906;28;20041;-67
2022/10/03 05:20:07;;;;;;;2.45;1.20;;;;;;;;;;5055486;28;20044;-67
2022/10/03 05:22:52;;;;;;;3.97;1.42;;;;;;;;;;5071648;28;20057;-66
2022/10/03 05:25:22;;;;;;;2.63;1.30;;;;;;;;;;5056848;28;20044;-67
2022/10/03 05:28:00;;;;;;;2.67;1.40;;;;;;;;;;5056949;28;20046;-67
2022/10/03 05:30:33;;;;;;;4.68;1.77;;;;;;;;;;5058470;28;20064;-67
2022/10/03 05:33:19;;;;;;;6.07;2.38;;;;;;;;;;5057176;28;20045;-67
2022/10/03 05:36:11;;;;;;;3.53;1.33;;;;;;;;;;5074400;28;20076;-67
2022/10/03 05:38:59;;;;;;;5.43;1.70;;;;;;;;;;5076312;28;20132;-67
2022/10/03 05:41:27;;;;;;;5.18;1.38;;;;;;;;;;5073079;28;20049;-66
2022/10/03 05:44:03;;;;;;;5.50;1.67;;;;;;;;;;5059879;28;20056;-67
2022/10/03 05:46:38;;;;;;;5.25;2.28;;;;;;;;;;5058387;28;20079;-67
2022/10/03 05:49:10;;;;;;;3.58;1.58;;;;;;;;;;5059316;28;21299;-67
2022/10/03 05:51:38;;;;;;;3.45;1.92;;;;;;;;;;5072910;28;20148;-66
2022/10/03 05:54:14;;;;;;;3.78;2.03;;;;;;;;;;5057662;28;20086;-66
2022/10/03 05:56:58;;;;;;;4.30;1.38;;;;;;;;;;5058966;28;20041;-66
2022/10/03 05:59:45;;;;;;;4.50;1.58;;;;;;;;;;5057453;28;20067;-71
2022/10/03 06:02:14;;;;;;;3.05;1.70;;;;;;;;;;5071909;28;20946;-70
2022/10/03 06:04:43;;;;;;;2.17;1.50;;;;;;;;;;5074301;28;20048;-71
2022/10/03 06:07:19;;;;;;;7.68;1.88;;;;;;;;;;5054470;28;20048;-75
2022/10/03 06:09:59;;;;;;;4.65;1.70;;;;;;;;;;5057217;28;20862;-67
2022/10/03 06:12:49;;;;;;;3.35;1.63;;;;;;;;;;5060053;28;20092;-67
2022/10/03 06:15:18;;;;;;;3.85;1.58;;;;;;;;;;5070754;28;20505;-67
2022/10/03 06:18:03;;;;;;;5.45;1.75;;;;;;;;;;5072683;28;20042;-68
2022/10/03 06:20:48;;;;;;;4.38;2.25;;;;;;;;;;5056712;28;20098;-67
2022/10/03 06:23:33;;;;;;;4.85;2.45;;;;;;;;;;5056187;28;20064;-68
2022/10/03 06:26:05;;;;;;;4.80;2.50;;;;;;;;;;5056605;28;20076;-68
2022/10/03 06:28:50;;;;;;;4.07;2.28;;;;;;;;;;5055275;28;20602;-68
2022/10/03 06:31:32;;;;;;;4.53;2.17;;;;;;;;;;5055054;28;20044;-68
2022/10/03 06:34:17;;;;;;;4.10;2.28;;;;;;;;;;5071666;28;20048;-68
2022/10/03 06:36:57;;;;;;;3.22;2.15;;;;;;;;;;5057950;28;20049;-68
2022/10/03 06:39:41;;;;;;;4.38;2.60;;;;;;;;;;5056116;28;20064;-68
2022/10/03 06:42:26;;;;;;;9.10;2.20;;;;;;;;;;5072513;28;20033;-68
2022/10/03 06:44:54;;;;;;;5.65;2.67;;;;;;;;;;5055407;28;20045;-68
2022/10/03 06:47:39;;;;;;;7.55;3.78;;;;;;;;;;5056193;28;20076;-68
2022/10/03 06:50:15;;;;;;;9.30;3.45;;;;;;;;;;5072224;28;20044;-68
2022/10/03 06:52:53;;;;;;;5.47;3.58;;;;;;;;;;5070045;28;20118;-68
2022/10/03 06:55:23;;;;;;;5.85;2.60;;;;;;;;;;5056071;28;20049;-68
2022/10/03 06:58:07;;;;;;;6.93;2.45;;;;;;;;;;5050936;28;20033;-68
2022/10/03 07:00:52;;;;;;;8.00;3.45;;;;;;;;;;5063909;28;20066;-68
2022/10/03 07:03:41;;;;;;;4.15;1.73;;;;;;;;;;5060029;28;20048;-67
2022/10/03 07:06:10;;;;;;;5.32;2.40;;;;;;;;;;5063138;28;20155;-68
2022/10/03 07:08:36;;;;;;;3.50;2.05;;;;;;;;;;5054102;28;20093;-68
2022/10/03 07:11:05;;;;;;;6.07;2.35;;;;;;;;;;5050446;28;20550;-67
2022/10/03 07:13:32;;;;;;;4.53;2.40;;;;;;;;;;5054573;28;20871;-67
2022/10/03 07:16:23;;;;;;;3.83;2.10;;;;;;;;;;5068747;28;20116;-68
2022/10/03 07:19:07;;;;;;;5.68;2.38;;;;;;;;;;5043185;28;20045;-67
2022/10/03 07:21:40;;;;;;;5.68;3.05;;;;;;;;;;5067785;28;20562;-67
2022/10/03 07:24:14;;;;;;;8.00;2.72;;;;;;;;;;5053386;28;20044;-67
2022/10/03 07:27:00;;;;;;;6.25;2.85;;;;;;;;;;5054940;28;20056;-68
2022/10/03 07:29:33;;;;;;;12.13;3.30;;;;;;;;;;5052530;28;20037;-67
2022/10/03 07:32:03;;;;;;;54.80;11.98;;;;;;;;;;5053345;28;20076;-68
2022/10/03 07:34:47;;;;;;;52.53;12.48;;;;;;;;;;5053702;28;20530;-67
2022/10/03 07:40:23;;;;;;;16.52;5.05;;;;;;;;;;5054134;28;20503;-68
2022/10/03 07:43:05;;;;;;;7.03;3.05;;;;;;;;;;5054016;28;20047;-68
2022/10/03 07:45:33;;;;;;;5.18;2.92;;;;;;;;;;5051461;28;20084;-68
2022/10/03 07:48:14;;;;;;;9.95;3.50;;;;;;;;;;5052862;28;20041;-68
2022/10/03 07:50:50;;;;;;;7.00;2.47;;;;;;;;;;5050607;28;20040;-68
2022/10/03 07:53:51;;;;;;;7.15;3.47;;;;;;;;;;5057515;28;21070;-71
2022/10/03 07:56:20;;;;;;;7.97;3.33;;;;;;;;;;5013581;28;20239;-68
2022/10/03 07:58:50;;;;;;;4.43;3.10;;;;;;;;;;5045781;28;20267;-68
2022/10/03 08:01:29;;;;;;;6.50;2.95;;;;;;;;;;5056717;28;20087;-68
2022/10/03 08:04:01;;;;;;;4.97;2.92;;;;;;;;;;5071691;28;20041;-68
2022/10/03 08:06:36;;;;;;;4.90;2.63;;;;;;;;;;5057744;28;20125;-68
2022/10/03 08:09:03;;;;;;;4.82;2.88;;;;;;;;;;5057337;28;20048;-68
2022/10/03 08:11:32;;;;;;;5.30;2.72;;;;;;;;;;5071666;28;20120;-68
2022/10/03 08:14:08;;;;;;;5.75;2.72;;;;;;;;;;5070306;28;20037;-68
2022/10/03 08:16:48;;;;;;;5.00;2.63;;;;;;;;;;5056607;28;20033;-68
2022/10/03 08:19:33;;;;;;;3.90;2.40;;;;;;;;;;5047521;28;20124;-68
2022/10/03 08:22:10;;;;;;;5.45;2.22;;;;;;;;;;5056730;28;20160;-68
2022/10/03 08:24:48;;;;;;;6.72;2.45;;;;;;;;;;5054404;28;20071;-69
2022/10/03 08:27:29;;;;;;;4.75;2.75;;;;;;;;;;5070547;28;20056;-68
2022/10/03 08:30:24;;;;;;;3.42;2.22;;;;;;;;;;5056972;28;20041;-68
2022/10/03 08:32:50;;;;;;;5.50;2.88;;;;;;;;;;5046348;28;20045;-68
2022/10/03 08:35:29;;;;;;;3.45;2.10;;;;;;;;;;5070055;28;20099;-68
2022/10/03 08:38:13;;;;;;;5.45;2.65;;;;;;;;;;5057161;28;20041;-68
2022/10/03 08:40:39;;;;;;;5.03;2.42;;;;;;;;;;5056513;28;20052;-68
2022/10/03 08:43:14;;;;;;;5.75;2.53;;;;;;;;;;5056421;28;20052;-69
2022/10/03 08:45:46;;;;;;;5.80;2.38;;;;;;;;;;5056923;28;20033;-68
2022/10/03 08:48:13;;;;;;;7.93;3.05;;;;;;;;;;5056193;28;20110;-68
2022/10/03 08:50:53;;;;;;;8.05;3.25;;;;;;;;;;5063464;28;20670;-68
2022/10/03 08:53:31;;;;;;;5.10;2.78;;;;;;;;;;5055927;28;20052;-68
2022/10/03 08:56:13;;;;;;;4.75;2.20;;;;;;;;;;5057407;28;20052;-68
2022/10/03 08:58:58;;;;;;;6.18;2.60;;;;;;;;;;5071645;28;20037;-68
2022/10/03 09:01:36;;;;;;;4.10;2.83;;;;;;;;;;5056181;28;20052;-69
2022/10/03 09:04:11;;;;;;;6.53;2.42;;;;;;;;;;5055192;28;20062;-68
2022/10/03 09:06:53;;;;;;;7.05;3.13;;;;;;;;;;5058365;28;20044;-68
2022/10/03 09:09:19;;;;;;;8.43;2.92;;;;;;;;;;5059695;28;20044;-68
2022/10/03 09:12:04;;;;;;;4.43;2.17;;;;;;;;;;5060312;28;20589;-68
2022/10/03 09:14:30;;;;;;;6.25;2.83;;;;;;;;;;5060292;28;20117;-68
2022/10/03 09:17:17;;;;;;;4.88;2.28;;;;;;;;;;5060245;28;20048;-68
2022/10/03 09:19:51;;;;;;;4.22;2.05;;;;;;;;;;5058461;28;20037;-68
2022/10/03 09:22:20;;;;;;;5.07;2.15;;;;;;;;;;5074015;28;20877;-67
2022/10/03 09:25:04;;;;;;;6.38;3.22;;;;;;;;;;5059383;28;20051;-67
2022/10/03 09:27:49;;;;;;;7.43;2.28;;;;;;;;;;5075154;28;20044;-67
2022/10/03 09:30:17;;;;;;;5.55;2.40;;;;;;;;;;5058339;28;20033;-68
2022/10/03 09:32:46;;;;;;;4.07;2.33;;;;;;;;;;5060001;28;20037;-68
2022/10/03 09:35:29;;;;;;;6.00;2.25;;;;;;;;;;5057282;28;20103;-68
2022/10/03 09:38:04;;;;;;;6.57;2.10;;;;;;;;;;5059940;28;20045;-68
2022/10/03 09:40:30;;;;;;;4.82;2.53;;;;;;;;;;5058535;28;20048;-68
2022/10/03 09:42:56;;;;;;;9.85;2.65;;;;;;;;;;5073218;28;20049;-68
2022/10/03 09:45:41;;;;;;;7.18;2.63;;;;;;;;;;5075078;28;20565;-67
2022/10/03 09:48:26;;;;;;;3.50;1.90;;;;;;;;;;5058985;28;20073;-68
2022/10/03 09:51:01;;;;;;;3.55;2.13;;;;;;;;;;5058494;28;20049;-68
2022/10/03 09:53:34;;;;;;;6.93;1.92;;;;;;;;;;5057839;28;20103;-68
2022/10/03 09:56:19;;;;;;;5.10;1.65;;;;;;;;;;5059322;28;20041;-67
2022/10/03 09:59:15;;;;;;;2.28;1.60;;;;;;;;;;5072945;28;20041;-68
2022/10/03 10:01:44;;;;;;;5.40;2.22;;;;;;;;;;5022806;28;20049;-68
2022/10/03 10:04:19;;;;;;;5.22;2.05;;;;;;;;;;5071807;28;20056;-68
2022/10/03 10:06:57;;;;;;;5.10;2.08;;;;;;;;;;5059087;28;20071;-68
2022/10/03 10:09:39;;;;;;;4.10;1.65;;;;;;;;;;5056967;28;20118;-68
2022/10/03 10:12:12;;;;;;;3.63;1.65;;;;;;;;;;5057686;28;20045;-69
2022/10/03 10:14:57;;;;;;;4.88;2.75;;;;;;;;;;5057825;28;20093;-68
2022/10/03 10:17:37;;;;;;;5.47;1.80;;;;;;;;;;5058032;28;20073;-68
2022/10/03 10:20:06;;;;;;;4.35;1.83;;;;;;;;;;5058313;28;20041;-68
2022/10/03 10:22:39;;;;;;;3.58;2.38;;;;;;;;;;5056185;28;20049;-68
2022/10/03 10:25:08;;;;;;;3.35;1.80;;;;;;;;;;5058988;28;21667;-68
2022/10/03 10:27:54;;;;;;;3.05;1.35;;;;;;;;;;5073557;28;20041;-68
2022/10/03 10:30:21;;;;;;;2.85;1.98;;;;;;;;;;5056516;28;20128;-68
2022/10/03 10:33:07;;;;;;;5.15;1.77;;;;;;;;;;5058534;28;21776;-68
2022/10/03 10:35:51;;;;;;;5.63;1.90;;;;;;;;;;5072143;28;20365;-68
2022/10/03 10:38:28;;;;;;;6.20;2.10;;;;;;;;;;5073517;28;20094;-68
2022/10/03 10:41:13;;;;;;;4.43;1.60;;;;;;;;;;5057872;28;20097;-69
2022/10/03 10:43:51;;;;;;;5.85;2.22;;;;;;;;;;5058210;28;20049;-68
2022/10/03 10:46:35;;;;;;;6.30;2.10;;;;;;;;;;5057883;28;20110;-67
2022/10/03 10:49:04;;;;;;;8.60;1.95;;;;;;;;;;5071828;28;20530;-68
2022/10/03 10:51:39;;;;;;;4.25;1.83;;;;;;;;;;5056095;28;20041;-69
2022/10/03 10:54:09;;;;;;;4.07;2.00;;;;;;;;;;5050435;28;20524;-67
2022/10/03 10:56:41;;;;;;;3.67;1.90;;;;;;;;;;5069559;28;20041;-67
2022/10/03 10:59:33;;;;;;;2.45;1.30;;;;;;;;;;5053740;28;20037;-67
2022/10/03 11:02:14;;;;;;;3.28;1.60;;;;;;;;;;5072233;28;21300;-67
2022/10/03 11:04:59;;;;;;;2.45;1.65;;;;;;;;;;5054645;28;20055;-67
2022/10/03 11:07:34;;;;;;;3.45;1.77;;;;;;;;;;5052056;28;20041;-67
2022/10/03 11:10:00;;;;;;;4.80;1.90;;;;;;;;;;5054759;28;20041;-67
2022/10/03 11:12:45;;;;;;;4.93;2.17;;;;;;;;;;5055446;28;20078;-67
2022/10/03 11:15:34;;;;;;;3.95;1.65;;;;;;;;;;5068634;28;20045;-67
2022/10/03 11:18:14;;;;;;;4.45;1.65;;;;;;;;;;5070138;28;20055;-67
2022/10/03 11:20:59;;;;;;;10.60;2.40;;;;;;;;;;5054411;28;20045;-67
2022/10/03 11:23:34;;;;;;;3.80;1.60;;;;;;;;;;5070140;28;20136;-67
2022/10/03 11:26:06;;;;;;;4.25;2.42;;;;;;;;;;5056213;28;20128;-68
2022/10/03 11:28:51;;;;;;;7.07;1.65;;;;;;;;;;5069664;28;20052;-67
2022/10/03 11:31:24;;;;;;;5.22;1.55;;;;;;;;;;5057269;28;20052;-67
2022/10/03 11:33:56;;;;;;;4.72;2.10;;;;;;;;;;5057526;28;20084;-68
2022/10/03 11:36:22;;;;;;;3.40;2.08;;;;;;;;;;5055136;28;20037;-68
2022/10/03 11:38:48;;;;;;;8.50;2.05;;;;;;;;;;5057212;28;20049;-68
2022/10/03 11:41:33;;;;;;;5.90;1.90;;;;;;;;;;5056320;28;20132;-67
2022/10/03 11:44:06;;;;;;;5.20;1.92;;;;;;;;;;5072850;28;20044;-67
2022/10/03 11:46:35;;;;;;;3.65;1.63;;;;;;;;;;5069619;28;20044;-67
2022/10/03 11:49:21;;;;;;;4.80;2.35;;;;;;;;;;5052908;28;20150;-67
2022/10/03 11:51:52;;;;;;;3.10;1.92;;;;;;;;;;5043058;28;20601;-69
2022/10/03 11:54:37;;;;;;;2.83;1.90;;;;;;;;;;5054519;28;20045;-70
2022/10/03 11:57:09;;;;;;;3.63;1.83;;;;;;;;;;5056227;28;20036;-69
2022/10/03 11:59:44;;;;;;;5.43;2.22;;;;;;;;;;5056516;28;20095;-69
2022/10/03 12:02:10;;;;;;;4.38;2.08;;;;;;;;;;5056568;28;20041;-69
2022/10/03 12:04:49;;;;;;;3.95;2.20;;;;;;;;;;5072630;28;20064;-69
2022/10/03 12:10:07;;;;;;;7.50;2.03;;;;;;;;;;5057702;28;20535;-69
2022/10/03 12:12:36;;;;;;;4.13;1.70;;;;;;;;;;5055334;28;20853;-69
2022/10/03 12:15:41;;;;;;;2.80;1.90;;;;;;;;;;5057557;28;20052;-69
2022/10/03 12:18:13;;;;;;;5.10;2.05;;;;;;;;;;5017618;28;20132;-70
2022/10/03 12:20:39;;;;;;;;;;;;;;;;;;5018328;28;20065;-70
2022/10/03 12:23:08;;;;;;;2.85;2.00;;;;;;;;;;5052608;28;19924;-70
2022/10/03 12:25:37;;;;;;;4.90;2.20;;;;;;;;;;5057019;28;20290;-69
2022/10/03 12:28:23;;;;;;;5.93;2.47;;;;;;;;;;5071484;28;20052;-69
2022/10/03 12:31:07;;;;;;;5.30;1.77;;;;;;;;;;5070748;28;20183;-69
2022/10/03 12:33:46;;;;;;;3.92;1.92;;;;;;;;;;5071413;28;20072;-69
2022/10/03 12:36:40;;;;;;;3.00;1.50;;;;;;;;;;5056244;28;20041;-69
2022/10/03 12:39:28;;;;;;;2.80;1.67;;;;;;;;;;5058616;28;20086;-71
2022/10/03 12:42:26;;;;;;;4.20;2.13;;;;;;;;;;5059884;28;20129;-69
2022/10/03 12:45:02;;;;;;;3.83;2.00;;;;;;;;;;5034658;28;20049;-70
2022/10/03 12:47:52;;;;;;;5.07;1.67;;;;;;;;;;5061579;28;20029;-69
2022/10/03 12:50:28;;;;;;;5.00;2.03;;;;;;;;;;5065643;28;20045;-69
2022/10/03 12:53:13;;;;;;;2.70;1.50;;;;;;;;;;5074757;28;20075;-69
2022/10/03 12:55:45;;;;;;;2.80;1.85;;;;;;;;;;5067403;28;20442;-69
2022/10/03 12:58:15;;;;;;;3.90;1.70;;;;;;;;;;5059094;28;20045;-69
2022/10/03 13:00:44;;;;;;;2.88;1.80;;;;;;;;;;5067425;28;20730;-69
2022/10/03 13:03:14;;;;;;;3.45;1.92;;;;;;;;;;5058755;28;20080;-69
2022/10/03 13:05:55;;;;;;;3.75;1.85;;;;;;;;;;5059331;28;20072;-69
2022/10/03 13:08:33;;;;;;;5.25;1.65;;;;;;;;;;5066853;28;20044;-70
2022/10/03 13:11:24;;;;;;;2.60;1.52;;;;;;;;;;5073736;28;20139;-69
2022/10/03 13:14:05;;;;;;;4.95;1.95;;;;;;;;;;5059999;28;20830;-69
2022/10/03 13:16:33;;;;;;;2.65;1.40;;;;;;;;;;5076414;28;20033;-69
2022/10/03 13:19:17;;;;;;;4.43;1.77;;;;;;;;;;5059078;28;20565;-69
2022/10/03 13:22:02;;;;;;;4.40;1.50;;;;;;;;;;5059022;28;20037;-68
2022/10/03 13:24:31;;;;;;;2.28;1.40;;;;;;;;;;5059110;28;20537;-72
2022/10/03 13:27:16;;;;;;;2.83;1.75;;;;;;;;;;5060614;28;20064;-71
2022/10/03 13:30:08;;;;;;;2.25;1.30;;;;;;;;;;5058974;28;20052;-69
2022/10/03 13:32:36;;;;;;;3.65;1.52;;;;;;;;;;5042066;28;20612;-69
2022/10/03 13:38:15;;;;;;;6.50;1.77;;;;;;;;;;5060279;28;20046;-69
2022/10/03 13:41:00;;;;;;;4.32;2.63;;;;;;;;;;5059564;28;20107;-69
2022/10/03 13:43:36;;;;;;;5.50;2.30;;;;;;;;;;5058519;28;20132;-68
2022/10/03 13:46:25;;;;;;;3.83;2.17;;;;;;;;;;5075671;28;20045;-69
2022/10/03 13:49:09;;;;;;;2.95;1.92;;;;;;;;;;5047022;28;20108;-69
2022/10/03 13:51:49;;;;;;;4.18;2.97;;;;;;;;;;5074052;28;20130;-68
2022/10/03 13:54:37;;;;;;;6.13;2.85;;;;;;;;;;5059774;28;20041;-69
2022/10/03 13:57:09;;;;;;;4.05;2.10;;;;;;;;;;5050135;28;20049;-69
2022/10/03 13:59:35;;;;;;;;;;;;;;;;;;5074783;28;20059;-69
2022/10/03 14:02:20;;;;;;;5.72;2.42;;;;;;;;;;5051328;28;19976;-69
2022/10/03 14:04:53;;;;;;;3.05;1.60;;;;;;;;;;5075067;28;20036;-69
2022/10/03 14:07:25;;;;;;;7.20;1.63;;;;;;;;;;5057008;28;20049;-69
2022/10/03 14:09:51;;;;;;;6.03;1.90;;;;;;;;;;5074314;28;20102;-69
2022/10/03 14:12:17;;;;;;;3.78;1.90;;;;;;;;;;5072164;28;20053;-69
2022/10/03 14:14:53;;;;;;;4.57;2.13;;;;;;;;;;5072616;28;20040;-69
2022/10/03 14:17:28;;;;;;;6.07;2.03;;;;;;;;;;5057561;28;20439;-68
2022/10/03 14:20:13;;;;;;;4.88;2.30;;;;;;;;;;5057867;28;20873;-69
2022/10/03 14:22:48;;;;;;;3.70;1.70;;;;;;;;;;5074441;28;20057;-69
2022/10/03 14:25:17;;;;;;;5.90;1.90;;;;;;;;;;5058823;28;20052;-68
2022/10/03 14:27:43;;;;;;;7.75;2.30;;;;;;;;;;5058062;28;20045;-69
2022/10/03 14:30:24;;;;;;;4.68;1.92;;;;;;;;;;5057927;28;20119;-69
2022/10/03 14:33:10;;;;;;;3.60;1.70;;;;;;;;;;5058693;28;20041;-69
2022/10/03 14:35:55;;;;;;;3.20;1.85;;;;;;;;;;5074482;28;20090;-69
2022/10/03 14:38:56;;;;;;;3.33;2.10;;;;;;;;;;5058925;28;20103;-69
2022/10/03 14:41:22;;;;;;;4.97;2.38;;;;;;;;;;5059155;28;20171;-69
2022/10/03 14:43:50;;;;;;;3.58;2.38;;;;;;;;;;5057001;28;20134;-69
2022/10/03 14:46:19;;;;;;;5.30;2.70;;;;;;;;;;5057882;28;20049;-69
2022/10/03 14:48:48;;;;;;;4.22;2.40;;;;;;;;;;5058363;28;20041;-69
2022/10/03 14:51:18;;;;;;;4.57;2.30;;;;;;;;;;5072654;28;20041;-69
2022/10/03 14:54:05;;;;;;;3.78;2.10;;;;;;;;;;5072516;28;20064;-69
2022/10/03 14:56:33;;;;;;;4.25;2.22;;;;;;;;;;5072539;28;20037;-69
2022/10/03 14:59:02;;;;;;;4.18;2.55;;;;;;;;;;5071218;28;21190;-69
2022/10/03 15:01:29;;;;;;;6.15;2.95;;;;;;;;;;5073632;28;20586;-69
2022/10/03 15:04:01;;;;;;;7.25;3.28;;;;;;;;;;5056861;28;20037;-69
2022/10/03 15:06:27;;;;;;;5.68;2.95;;;;;;;;;;5065882;28;20037;-69
2022/10/03 15:08:54;;;;;;;5.78;2.60;;;;;;;;;;5058802;28;20049;-69
2022/10/03 15:11:23;;;;;;;5.03;2.47;;;;;;;;;;5074035;28;21086;-69
2022/10/03 15:13:53;;;;;;;7.05;2.83;;;;;;;;;;5074096;28;20589;-69
2022/10/03 15:16:21;;;;;;;6.28;3.28;;;;;;;;;;5056762;28;20063;-69
2022/10/03 15:18:52;;;;;;;8.05;2.25;;;;;;;;;;5057220;28;20045;-69
2022/10/03 15:21:18;;;;;;;4.67;2.63;;;;;;;;;;5073235;28;20086;-69
2022/10/03 15:23:45;;;;;;;6.35;2.92;;;;;;;;;;5057750;28;20055;-70
2022/10/03 15:26:15;;;;;;;6.15;2.58;;;;;;;;;;5056665;28;20096;-69
2022/10/03 15:28:46;;;;;;;5.07;2.95;;;;;;;;;;5056704;28;20045;-69
2022/10/03 15:31:13;;;;;;;;;;;;;;;;;;5057904;28;20049;-68
2022/10/03 15:33:40;;;;;;;4.55;2.17;;;;;;;;;;5073906;28;19956;-69
2022/10/03 15:36:13;;;;;;;6.68;3.17;;;;;;;;;;5056604;28;20041;-69
2022/10/03 15:38:41;;;;;;;4.47;3.00;;;;;;;;;;5057453;28;20518;-69
2022/10/03 15:41:15;;;;;;;4.05;2.30;;;;;;;;;;5058129;28;20041;-69
2022/10/03 15:43:45;;;;;;;6.07;2.50;;;;;;;;;;5073516;28;20037;-69
2022/10/03 15:46:14;;;;;;;6.63;3.15;;;;;;;;;;5057830;28;20037;-69
2022/10/03 15:48:42;;;;;;;6.72;2.83;;;;;;;;;;5057184;28;20041;-69
2022/10/03 15:51:16;;;;;;;5.70;2.63;;;;;;;;;;5057028;28;20602;-68
2022/10/03 15:53:42;;;;;;;7.32;2.85;;;;;;;;;;5057641;28;20047;-69